Yarmouth Port, MA (02675)

08:03 EDT le 27 avril 2015 (GMT -0400)
WA1FSC - Yarmouth Port | | Change Station
CLOSE
Current Station
Stations météorologiques personnelles
Location: Yarmouth, MA
Altitude: 33 ft
Stations météo à proximité

Alt. 33 ft 41.71 °N, 70.23 °W | Updated 6 minutes ago

Ciel dégagé
Ciel dégagé
49.8 ° F
Paraît 49 ° F
N
3.2
Vent Variable Vent de NO

Aujourd'hui
Haut(e) -- | Bas -- ° F
--% Risque de précip.
Hier
Haut(e) -- | Bas -- ° F
Precip. -- pouce
5:43 AM 7:34 PM
Lune gibbeuse croissante, 64% visible
Pression 29.57 pouce
Visibilité 10.0 Miles terrestres
Nuages Couvert 9500 ft
Refroidissement éolien 49 ° F
Point de rosée 39 ° F
Humidité 66%
Précipitations 0.00 pouce
Profondeur de la couche neigeuse Non disponible.
UV 1 sur 12
Pollen 9.20 sur 12
Qualité de l'air Non disponible.
Flu Activity Widespread
METAR KHYA 271156Z 32011KT 10SM OVC095 10/02 A2956 RMK AO2 SLP011 T01000022 10100 20072 58001 $

More Conditions Fewer Conditions

Pression 29.57 pouce
Visibilité 10.0 Miles terrestres
Nuages Couvert 9500 ft
Refroidissement éolien 49 ° F
Point de rosée 39 ° F
Humidité 66%
Précipitations 0.00 pouce
Profondeur de la couche neigeuse Non disponible.
UV 1 sur 12
Pollen 9.20 sur 12
Qualité de l'air Non disponible.
Flu Activity Widespread
METAR KHYA 271156Z 32011KT 10SM OVC095 10/02 A2956 RMK AO2 SLP011 T01000022 10100 20072 58001 $

More Conditions Fewer Conditions

10-Day Weather Forecast

Almanac

Astronomie

Apr. 27, 2015 Lever Coucher
Temps réel
Crépuscule civil
Crépuscule nautique
Crépuscule astronomique
Lune
Durée de lumière visible
Longueur du jour
Tomorrow will be .
, % of the Moon is Illuminated

Extrêmes aujourd'hui

State Highs State Lows

Community

WunderPhotos

Upload Photos

1,817,284 Photos téléchargées !

WunderBlogs® & News

Nearby

Qualité de l'air

  Qualité de l'air Indice de la qualité de l'air Polluant
Not available.

Épaisseur de neige

Station Depth Altitude

Activité sismique

Ville Distance Mag. Time & Date
Minimum magnitude displayed is 2.5.

Températures des eaux côtières

Lieu Température

Stations

Stations météo à proximité

Emplacement de la station Température Refroidissement éolien Point de rosée Humidité Vent Precip. Alt. Mise à jour Type